createdAt,value
2022-08-23T00:01:24.225Z,99112.38
2022-08-23T00:03:28.654Z,99116.69
2022-08-23T00:05:31.433Z,99132.44
2022-08-23T00:07:38.042Z,99126.09
2022-08-23T00:09:41.088Z,99121.78
2022-08-23T00:11:48.238Z,99122.81
2022-08-23T00:13:53.638Z,99115.75
2022-08-23T00:15:58.813Z,99119.09
2022-08-23T00:18:01.240Z,99119.09
2022-08-23T00:20:12.800Z,99123.50
2022-08-23T00:22:15.875Z,99124.19
2022-08-23T00:24:20.054Z,99131.72
2022-08-23T00:26:22.428Z,99132.72
2022-08-23T00:28:24.682Z,99122.06
2022-08-23T00:30:26.990Z,99119.47
2022-08-23T00:32:32.890Z,99115.16
2022-08-23T00:34:37.035Z,99111.41
2022-08-23T00:36:40.051Z,99116.91
2022-08-23T00:38:42.396Z,99116.19
2022-08-23T00:40:51.313Z,99116.63
2022-08-23T00:43:12.137Z,99123.88
2022-08-23T00:45:36.489Z,99121.72
2022-08-23T00:47:43.098Z,99117.25
2022-08-23T00:49:54.025Z,99121.28
2022-08-23T00:52:02.850Z,99116.09
2022-08-23T00:54:05.942Z,99114.09
2022-08-23T00:56:11.244Z,99111.34
2022-08-23T00:58:18.557Z,99111.66
2022-08-23T01:00:21.367Z,99104.41
2022-08-23T01:02:23.902Z,99101.69
2022-08-23T01:04:31.168Z,99099.78
2022-08-23T01:06:52.124Z,99090.16
2022-08-23T01:09:00.213Z,99094.22
2022-08-23T01:11:11.587Z,99097.25
2022-08-23T01:13:20.195Z,99096.28
2022-08-23T01:15:32.151Z,99094.69
2022-08-23T01:17:44.729Z,99096.56
2022-08-23T01:19:57.646Z,99092.84
2022-08-23T01:22:24.544Z,99111.19
2022-08-23T01:25:05.940Z,99107.41
2022-08-23T01:26:50.676Z,99110.16
2022-08-23T01:28:56.388Z,99104.44
2022-08-23T01:30:59.716Z,99105.84
2022-08-23T01:33:06.457Z,99102.28
2022-08-23T01:35:10.761Z,99098.53
2022-08-23T01:37:14.355Z,99099.13
2022-08-23T01:39:16.766Z,99097.31
2022-08-23T01:41:19.440Z,99091.81
2022-08-23T01:43:23.172Z,99090.66
2022-08-23T01:45:29.025Z,99087.75
2022-08-23T01:47:32.052Z,99097.84
2022-08-23T01:49:35.400Z,99090.78
2022-08-23T01:51:38.929Z,99095.41
2022-08-23T01:53:43.176Z,99093.66
2022-08-23T01:55:45.580Z,99095.72
2022-08-23T01:57:50.689Z,99102.06
2022-08-23T01:59:53.834Z,99104.38
2022-08-23T02:01:56.792Z,99112.91
2022-08-23T02:04:04.872Z,99120.09
2022-08-23T02:06:07.704Z,99120.22
2022-08-23T02:08:28.708Z,99122.69
2022-08-23T02:10:33.527Z,99123.28
2022-08-23T02:12:38.875Z,99130.63
2022-08-23T02:14:47.347Z,99140.59
2022-08-23T02:17:03.045Z,99145.34
2022-08-23T02:19:12.868Z,99143.91
2022-08-23T02:21:14.827Z,99136.28
2022-08-23T02:23:19.065Z,99139.72
2022-08-23T02:25:21.291Z,99134.94
2022-08-23T02:27:23.423Z,99135.66
2022-08-23T02:29:29.732Z,99139.56
2022-08-23T02:31:32.527Z,99147.91
2022-08-23T02:33:35.505Z,99152.22
2022-08-23T02:35:38.874Z,99154.97
2022-08-23T02:37:40.998Z,99153.38
2022-08-23T02:39:43.822Z,99150.94
2022-08-23T02:41:47.988Z,99152.09
2022-08-23T02:43:53.796Z,99153.97
2022-08-23T02:45:57.660Z,99155.56
2022-08-23T02:48:00.366Z,99147.66
2022-08-23T02:50:10.396Z,99151.66
2022-08-23T02:52:12.762Z,99159.59
2022-08-23T02:54:15.109Z,99154.97
2022-08-23T02:56:21.911Z,99155.69
2022-08-23T02:58:26.671Z,99160.03
2022-08-23T03:00:29.025Z,99158.16
2022-08-23T03:02:31.617Z,99156.44
2022-08-23T03:04:34.534Z,99150.97
2022-08-23T03:06:39.424Z,99151.81
2022-08-23T03:08:42.709Z,99161.63
2022-08-23T03:10:48.774Z,99164.06
2022-08-23T03:12:51.086Z,99167.94
2022-08-23T03:14:53.911Z,99158.56
2022-08-23T03:16:58.341Z,99168.06
2022-08-23T03:19:02.419Z,99162.31
2022-08-23T03:21:06.954Z,99163.00
2022-08-23T03:23:10.432Z,99170.69
2022-08-23T03:25:12.760Z,99167.06
2022-08-23T03:27:44.628Z,99171.41
2022-08-23T03:29:49.111Z,99180.19
2022-08-23T03:31:51.879Z,99187.66
2022-08-23T03:33:56.967Z,99181.50
2022-08-23T03:36:02.178Z,99195.47
2022-08-23T03:38:05.530Z,99192.91
2022-08-23T03:40:08.603Z,99187.84
2022-08-23T03:42:10.867Z,99193.75
2022-08-23T03:44:12.982Z,99195.19
2022-08-23T03:46:24.611Z,99200.50
2022-08-23T03:48:33.290Z,99196.34
2022-08-23T03:50:35.643Z,99200.69
2022-08-23T03:52:37.886Z,99191.44
2022-08-23T03:54:40.144Z,99200.41
2022-08-23T03:57:03.055Z,99197.97
2022-08-23T03:59:13.683Z,99195.47
2022-08-23T04:01:16.377Z,99212.81
2022-08-23T04:03:18.709Z,99208.75
2022-08-23T04:05:38.437Z,99213.97
2022-08-23T04:07:47.903Z,99220.88
2022-08-23T04:09:54.841Z,99222.44
2022-08-23T04:11:59.967Z,99219.03
2022-08-23T04:14:02.903Z,99214.41
2022-08-23T04:16:06.322Z,99217.56
2022-08-23T04:18:09.468Z,99210.38
2022-08-23T04:20:12.139Z,99207.47
2022-08-23T04:22:24.988Z,99212.94
2022-08-23T04:24:27.966Z,99209.22
2022-08-23T04:26:30.713Z,99216.41
2022-08-23T04:28:34.402Z,99209.03
2022-08-23T04:30:36.659Z,99206.59
2022-08-23T04:32:41.258Z,99204.59
2022-08-23T04:34:51.366Z,99213.53
2022-08-23T04:36:55.186Z,99205.16
2022-08-23T04:38:58.049Z,99211.22
2022-08-23T04:41:18.791Z,99207.03
2022-08-23T04:43:21.959Z,99207.88
2022-08-23T04:45:27.346Z,99214.09
2022-08-23T04:47:29.810Z,99219.44
2022-08-23T04:49:38.322Z,99224.94
2022-08-23T04:51:40.900Z,99218.56
2022-08-23T04:53:44.550Z,99218.28
2022-08-23T04:56:06.261Z,99216.53
2022-08-23T04:58:10.027Z,99220.31
2022-08-23T05:00:21.438Z,99214.53
2022-08-23T05:02:30.538Z,99215.38
2022-08-23T05:04:32.862Z,99220.97
2022-08-23T05:06:35.725Z,99211.47
2022-08-23T05:08:39.151Z,99214.31
2022-08-23T05:10:42.840Z,99216.31
2022-08-23T05:12:48.654Z,99217.47
2022-08-23T05:14:52.797Z,99217.56
2022-08-23T05:16:58.045Z,99217.97
2022-08-23T05:19:00.919Z,99216.94
2022-08-23T05:21:03.751Z,99216.06
2022-08-23T05:23:06.664Z,99215.00
2022-08-23T05:25:11.111Z,99216.13
2022-08-23T05:27:14.212Z,99219.41
2022-08-23T05:29:16.724Z,99217.16
2022-08-23T05:31:27.369Z,99217.28
2022-08-23T05:33:37.350Z,99212.59
2022-08-23T05:35:40.502Z,99216.84
2022-08-23T05:37:43.030Z,99218.91
2022-08-23T05:39:46.006Z,99216.06
2022-08-23T05:41:48.843Z,99221.56
2022-08-23T05:43:51.237Z,99224.56
2022-08-23T05:46:26.632Z,99228.16
2022-08-23T05:48:57.142Z,99227.53
2022-08-23T05:51:19.378Z,99234.59
2022-08-23T05:53:23.617Z,99228.00
2022-08-23T05:55:27.638Z,99225.31
2022-08-23T05:57:55.033Z,99228.84
2022-08-23T05:59:58.171Z,99223.72
2022-08-23T06:02:00.516Z,99231.22
2022-08-23T06:04:08.086Z,99231.75
2022-08-23T06:06:11.736Z,99231.31
2022-08-23T06:08:14.862Z,99232.03
2022-08-23T06:10:18.190Z,99230.38
2022-08-23T06:12:25.525Z,99223.69
2022-08-23T06:14:28.525Z,99234.88
2022-08-23T06:16:36.857Z,99237.34
2022-08-23T06:18:39.638Z,99239.19
2022-08-23T06:21:06.854Z,99232.22
2022-08-23T06:23:23.712Z,99229.50
2022-08-23T06:25:25.989Z,99237.94
2022-08-23T06:27:35.216Z,99237.66
2022-08-23T06:29:38.799Z,99240.63
2022-08-23T06:32:00.714Z,99244.44
2022-08-23T06:34:07.876Z,99246.88
2022-08-23T06:36:34.401Z,99248.06
2022-08-23T06:39:03.650Z,99247.34
2022-08-23T06:41:21.227Z,99248.09
2022-08-23T06:43:39.543Z,99249.00
2022-08-23T06:46:00.614Z,99249.19
2022-08-23T06:48:04.859Z,99244.03
2022-08-23T06:50:09.744Z,99243.91
2022-08-23T06:52:30.622Z,99245.69
2022-08-23T06:54:49.248Z,99239.19
2022-08-23T06:57:10.095Z,99235.56
2022-08-23T06:59:34.707Z,99243.00
2022-08-23T07:02:04.241Z,99234.38
2022-08-23T07:04:45.304Z,99234.06
2022-08-23T07:07:10.724Z,99237.53
2022-08-23T07:09:14.492Z,99236.16
2022-08-23T07:11:17.227Z,99244.41
2022-08-23T07:13:19.386Z,99246.50
2022-08-23T07:15:21.455Z,99242.53
2022-08-23T07:17:24.098Z,99236.16
2022-08-23T07:19:30.180Z,99253.91
2022-08-23T07:21:32.597Z,99252.91
2022-08-23T07:23:35.356Z,99249.13
2022-08-23T07:25:40.962Z,99238.94
2022-08-23T07:27:45.732Z,99245.66
2022-08-23T07:29:49.779Z,99249.31
2022-08-23T07:31:54.753Z,99244.09
2022-08-23T07:34:00.329Z,99246.34
2022-08-23T07:36:03.457Z,99246.13
2022-08-23T07:38:06.796Z,99245.22
2022-08-23T07:40:11.652Z,99252.84
2022-08-23T07:42:24.337Z,99248.69
2022-08-23T07:44:30.692Z,99252.31
2022-08-23T07:46:33.948Z,99252.78
2022-08-23T07:48:53.571Z,99256.41
2022-08-23T07:51:02.425Z,99252.22
2022-08-23T07:53:04.899Z,99249.78
2022-08-23T07:55:07.908Z,99247.88
2022-08-23T07:57:25.103Z,99247.50
2022-08-23T07:59:49.226Z,99244.75
2022-08-23T08:02:16.627Z,99237.84
2022-08-23T08:04:20.094Z,99249.91
2022-08-23T08:06:28.396Z,99245.19
2022-08-23T08:08:30.593Z,99251.22
2022-08-23T08:10:33.004Z,99252.53
2022-08-23T08:12:37.233Z,99252.84
2022-08-23T08:14:49.619Z,99252.63
2022-08-23T08:16:56.398Z,99244.59
2022-08-23T08:19:19.770Z,99248.19
2022-08-23T08:21:51.501Z,99253.81
2022-08-23T08:24:14.634Z,99249.31
2022-08-23T08:26:28.613Z,99236.09
2022-08-23T08:28:33.293Z,99243.97
2022-08-23T08:30:36.336Z,99239.59
2022-08-23T08:32:47.003Z,99247.81
2022-08-23T08:34:52.443Z,99241.34
2022-08-23T08:36:58.475Z,99239.94
2022-08-23T08:39:08.605Z,99236.03
2022-08-23T08:41:20.112Z,99243.00
2022-08-23T08:43:51.444Z,99238.44
2022-08-23T08:46:23.214Z,99239.78
2022-08-23T08:48:28.400Z,99233.97
2022-08-23T08:50:40.997Z,99238.06
2022-08-23T08:53:10.978Z,99241.63
2022-08-23T08:55:45.341Z,99241.97
2022-08-23T08:57:51.763Z,99240.47
2022-08-23T09:00:02.172Z,99229.38
2022-08-23T09:02:32.015Z,99230.31
2022-08-23T09:04:37.242Z,99234.41
2022-08-23T09:07:08.189Z,99239.94
2022-08-23T09:09:48.061Z,99235.19
2022-08-23T09:12:12.540Z,99235.47
2022-08-23T09:14:23.362Z,99234.00
2022-08-23T09:16:43.208Z,99236.41
2022-08-23T09:18:46.285Z,99231.34
2022-08-23T09:20:53.893Z,99239.84
2022-08-23T09:23:06.792Z,99233.78
2022-08-23T09:25:13.061Z,99240.00
2022-08-23T09:27:32.819Z,99232.34
2022-08-23T09:29:40.602Z,99228.78
2022-08-23T09:31:47.532Z,99226.69
2022-08-23T09:33:51.047Z,99225.25
2022-08-23T09:36:26.427Z,99221.50
2022-08-23T09:38:35.667Z,99223.28
2022-08-23T09:40:50.344Z,99226.53
2022-08-23T09:43:07.563Z,99229.34
2022-08-23T09:45:51.037Z,99224.72
2022-08-23T09:47:56.945Z,99222.75
2022-08-23T09:50:28.248Z,99220.16
2022-08-23T09:52:37.910Z,99225.69
2022-08-23T09:54:47.635Z,99234.09
2022-08-23T09:56:57.579Z,99221.22
2022-08-23T09:59:01.451Z,99228.09
2022-08-23T10:01:29.052Z,99223.41
2022-08-23T10:03:43.001Z,99231.19
2022-08-23T10:05:57.570Z,99225.88
2022-08-23T10:08:08.842Z,99225.06
2022-08-23T10:10:24.578Z,99222.53
2022-08-23T10:12:29.047Z,99227.88
2022-08-23T10:14:33.970Z,99223.69
2022-08-23T10:16:58.741Z,99216.72
2022-08-23T10:19:10.769Z,99221.25
2022-08-23T10:21:25.762Z,99216.56
2022-08-23T10:24:00.661Z,99212.31
2022-08-23T10:26:03.271Z,99217.06
2022-08-23T10:28:43.154Z,99221.84
2022-08-23T10:31:09.576Z,99225.31
2022-08-23T10:33:19.272Z,99222.97
2022-08-23T10:35:26.317Z,99224.88
2022-08-23T10:37:45.116Z,99222.09
2022-08-23T10:40:04.243Z,99212.31
2022-08-23T10:42:17.305Z,99215.63
2022-08-23T10:44:35.542Z,99210.97
2022-08-23T10:47:04.238Z,99202.50
2022-08-23T10:49:08.128Z,99207.03
2022-08-23T10:51:13.804Z,99210.47
2022-08-23T10:53:18.529Z,99198.50
2022-08-23T10:55:39.496Z,99195.06
2022-08-23T10:57:45.488Z,99202.78
2022-08-23T10:59:53.065Z,99204.31
2022-08-23T11:02:04.047Z,99201.69
2022-08-23T11:04:24.231Z,99210.72
2022-08-23T11:06:56.220Z,99211.97
2022-08-23T11:09:05.960Z,99211.81
2022-08-23T11:11:40.130Z,99218.47
2022-08-23T11:13:53.534Z,99213.56
2022-08-23T11:15:58.999Z,99217.44
2022-08-23T11:18:09.228Z,99225.34
2022-08-23T11:20:52.203Z,99218.38
2022-08-23T11:23:01.608Z,99210.66
2022-08-23T11:25:16.381Z,99205.47
2022-08-23T11:27:36.299Z,99210.00
2022-08-23T11:29:41.600Z,99204.66
2022-08-23T11:32:16.509Z,99197.59
2022-08-23T11:34:29.976Z,99200.81
2022-08-23T11:36:40.476Z,99197.78
2022-08-23T11:38:48.765Z,99200.75
2022-08-23T11:40:52.374Z,99195.44
2022-08-23T11:43:06.493Z,99194.31
2022-08-23T11:45:40.641Z,99205.84
2022-08-23T11:47:47.211Z,99208.56
2022-08-23T11:50:23.489Z,99204.59
2022-08-23T11:52:46.828Z,99206.91
2022-08-23T11:55:07.579Z,99216.22
2022-08-23T11:57:31.278Z,99219.84
2022-08-23T12:00:20.960Z,99223.22
2022-08-23T12:03:02.706Z,99221.94
2022-08-23T12:05:23.009Z,99215.16
2022-08-23T12:07:51.694Z,99215.97
2022-08-23T12:09:56.144Z,99219.78
2022-08-23T12:11:57.992Z,99213.19
2022-08-23T12:14:21.712Z,99221.28
2022-08-23T12:16:24.967Z,99213.09
2022-08-23T12:18:27.473Z,99218.00
2022-08-23T12:20:31.574Z,99209.97
2022-08-23T12:23:01.540Z,99215.94
2022-08-23T12:25:07.390Z,99214.00
2022-08-23T12:27:21.695Z,99216.25
2022-08-23T12:30:01.487Z,99221.69
2022-08-23T12:32:07.872Z,99214.63
2022-08-23T12:34:23.238Z,99212.66
2022-08-23T12:37:11.326Z,99213.84
2022-08-23T12:39:53.928Z,99217.59
2022-08-23T12:42:15.878Z,99214.94
2022-08-23T12:44:21.840Z,99221.31
2022-08-23T12:46:34.837Z,99209.56
2022-08-23T12:48:47.466Z,99209.97
2022-08-23T12:50:59.870Z,99196.78
2022-08-23T12:53:09.930Z,99185.69
2022-08-23T12:55:20.189Z,99190.56
2022-08-23T12:57:39.889Z,99193.06
2022-08-23T13:00:18.518Z,99191.47
2022-08-23T13:02:32.325Z,99197.00
2022-08-23T13:04:35.995Z,99194.44
2022-08-23T13:06:45.870Z,99208.44
2022-08-23T13:09:02.723Z,99221.53
2022-08-23T13:11:08.328Z,99222.75
2022-08-23T13:13:14.280Z,99224.00
2022-08-23T13:15:45.057Z,99225.84
2022-08-23T13:17:47.185Z,99225.47
2022-08-23T13:20:11.350Z,99224.81
2022-08-23T13:22:22.551Z,99225.53
2022-08-23T13:24:39.131Z,99220.59
2022-08-23T13:26:43.706Z,99226.75
2022-08-23T13:29:03.393Z,99222.00
2022-08-23T13:31:08.612Z,99221.84
2022-08-23T13:33:17.457Z,99220.97
2022-08-23T13:35:37.107Z,99219.16
2022-08-23T13:37:46.346Z,99219.44
2022-08-23T13:40:01.251Z,99223.25
2022-08-23T13:42:03.838Z,99222.28
2022-08-23T13:44:09.160Z,99220.31
2022-08-23T13:46:22.471Z,99215.22
2022-08-23T13:48:33.093Z,99219.25
2022-08-23T13:50:37.363Z,99220.47
2022-08-23T13:52:56.602Z,99227.47
2022-08-23T13:55:02.083Z,99231.88
2022-08-23T13:57:15.895Z,99228.31
2022-08-23T13:59:36.898Z,99226.09
2022-08-23T14:01:39.147Z,99228.53
2022-08-23T14:03:41.387Z,99235.78
2022-08-23T14:05:43.764Z,99237.09
2022-08-23T14:07:47.863Z,99235.88
2022-08-23T14:09:54.404Z,99244.16
2022-08-23T14:11:59.925Z,99237.94
2022-08-23T14:14:05.374Z,99245.69
2022-08-23T14:18:34.652Z,99241.94
2022-08-23T14:20:44.281Z,99236.28
2022-08-23T14:22:48.343Z,99229.72
2022-08-23T14:24:51.808Z,99235.31
2022-08-23T14:26:56.146Z,99243.16
2022-08-23T14:28:58.241Z,99248.31
2022-08-23T14:31:01.044Z,99245.19
2022-08-23T14:33:06.258Z,99242.09
2022-08-23T14:35:09.527Z,99244.22
2022-08-23T14:38:00.706Z,99243.72
2022-08-23T14:39:35.862Z,99237.81
2022-08-23T14:41:37.843Z,99242.63
2022-08-23T14:43:40.079Z,99237.78
2022-08-23T14:45:42.605Z,99240.72
2022-08-23T14:47:44.609Z,99232.41
2022-08-23T14:49:52.096Z,99235.00
2022-08-23T14:51:55.993Z,99231.66
2022-08-23T14:53:58.362Z,99235.94
2022-08-23T14:56:20.673Z,99233.84
2022-08-23T14:58:25.210Z,99233.09
2022-08-23T15:00:27.660Z,99232.09
2022-08-23T15:02:30.312Z,99230.72
2022-08-23T15:04:34.738Z,99230.84
2022-08-23T15:07:00.440Z,99232.41
2022-08-23T15:09:04.888Z,99231.84
2022-08-23T15:13:35.505Z,99231.09
2022-08-23T15:15:39.524Z,99235.59
2022-08-23T15:17:57.075Z,99229.16
2022-08-23T15:19:59.650Z,99233.97
2022-08-23T15:22:10.016Z,99226.03
2022-08-23T15:24:24.061Z,99226.50
2022-08-23T15:26:29.618Z,99232.91
2022-08-23T15:28:32.200Z,99232.72
2022-08-23T15:30:34.966Z,99233.56
2022-08-23T15:32:37.527Z,99231.09
2022-08-23T15:34:44.348Z,99232.44
2022-08-23T15:36:48.914Z,99226.69
2022-08-23T15:38:51.756Z,99230.31
2022-08-23T15:40:57.308Z,99233.09
2022-08-23T15:43:03.466Z,99236.25
2022-08-23T15:45:07.140Z,99239.41
2022-08-23T15:47:20.300Z,99246.28
2022-08-23T15:49:24.363Z,99251.22
2022-08-23T15:51:26.696Z,99265.38
2022-08-23T15:53:28.933Z,99286.28
2022-08-23T15:55:37.263Z,99291.75
2022-08-23T15:57:51.740Z,99289.53
2022-08-23T15:59:55.856Z,99296.31
2022-08-23T16:01:58.437Z,99296.09
2022-08-23T16:04:02.673Z,99299.34
2022-08-23T16:06:06.228Z,99295.47
2022-08-23T16:08:12.230Z,99303.03
2022-08-23T16:10:15.562Z,99296.97
2022-08-23T16:12:17.862Z,99299.78
2022-08-23T16:14:20.272Z,99300.16
2022-08-23T16:16:26.425Z,99301.16
2022-08-23T16:18:28.737Z,99298.94
2022-08-23T16:20:33.606Z,99301.00
2022-08-23T16:22:36.753Z,99301.69
2022-08-23T16:24:41.776Z,99305.63
2022-08-23T16:26:45.661Z,99298.50
2022-08-23T16:28:50.097Z,99303.31
2022-08-23T16:30:52.690Z,99296.56
2022-08-23T16:32:56.132Z,99283.25
2022-08-23T16:34:58.684Z,99289.09
2022-08-23T16:37:04.881Z,99291.50
2022-08-23T16:39:07.997Z,99288.00
2022-08-23T16:41:10.294Z,99286.59
2022-08-23T16:43:13.002Z,99298.13
2022-08-23T16:45:15.155Z,99293.28
2022-08-23T16:47:18.426Z,99293.28
2022-08-23T16:49:20.760Z,99291.38
2022-08-23T16:51:26.218Z,99284.81
2022-08-23T16:53:28.508Z,99290.91
2022-08-23T16:55:30.963Z,99296.78
2022-08-23T16:57:33.828Z,99302.66
2022-08-23T16:59:40.394Z,99302.66
2022-08-23T17:01:57.891Z,99308.94
2022-08-23T17:04:00.038Z,99304.94
2022-08-23T17:06:02.207Z,99299.94
2022-08-23T17:08:04.726Z,99300.53
2022-08-23T17:10:08.818Z,99304.50
2022-08-23T17:12:38.311Z,99315.94
2022-08-23T17:14:40.475Z,99321.81
2022-08-23T17:16:44.242Z,99333.06
2022-08-23T17:18:46.529Z,99335.28
2022-08-23T17:20:53.392Z,99339.28
2022-08-23T17:22:56.864Z,99342.03
2022-08-23T17:24:59.007Z,99357.09
2022-08-23T17:27:04.017Z,99365.56
2022-08-23T17:29:07.444Z,99382.31
2022-08-23T17:31:13.560Z,99385.81
2022-08-23T17:33:15.785Z,99384.25
2022-08-23T17:35:27.310Z,99384.56
2022-08-23T17:37:29.763Z,99397.34
2022-08-23T17:39:32.034Z,99391.88
2022-08-23T17:41:37.013Z,99375.84
2022-08-23T17:43:39.191Z,99376.88
2022-08-23T17:45:46.603Z,99375.16
2022-08-23T17:47:48.994Z,99382.03
2022-08-23T17:49:55.466Z,99388.44
2022-08-23T17:51:57.678Z,99401.00
2022-08-23T17:54:00.176Z,99396.19
2022-08-23T17:56:02.344Z,99393.75
2022-08-23T17:58:09.957Z,99388.34
2022-08-23T18:00:16.814Z,99381.59
2022-08-23T18:02:20.871Z,99380.41
2022-08-23T18:04:23.037Z,99378.75
2022-08-23T18:06:26.720Z,99372.88
2022-08-23T18:08:29.034Z,99386.25
2022-08-23T18:10:31.864Z,99382.28
2022-08-23T18:12:34.634Z,99394.41
2022-08-23T18:14:36.780Z,99398.44
2022-08-23T18:16:39.635Z,99406.25
2022-08-23T18:18:42.287Z,99405.59
2022-08-23T18:20:44.846Z,99418.13
2022-08-23T18:22:47.957Z,99407.75
2022-08-23T18:24:50.119Z,99415.63
2022-08-23T18:27:10.877Z,99406.44
2022-08-23T18:29:14.657Z,99409.97
2022-08-23T18:31:19.849Z,99416.13
2022-08-23T18:33:25.465Z,99413.66
2022-08-23T18:35:34.739Z,99411.28
2022-08-23T18:37:36.938Z,99417.69
2022-08-23T18:39:39.113Z,99411.25
2022-08-23T18:41:42.451Z,99396.47
2022-08-23T18:43:44.818Z,99391.03
2022-08-23T18:45:49.009Z,99392.25
2022-08-23T18:47:50.951Z,99396.06
2022-08-23T18:49:52.851Z,99397.00
2022-08-23T18:51:54.926Z,99404.41
2022-08-23T18:53:57.626Z,99401.59
2022-08-23T18:55:59.641Z,99400.22
2022-08-23T18:58:02.428Z,99387.09
2022-08-23T19:00:05.840Z,99371.31
2022-08-23T19:02:08.427Z,99375.69
2022-08-23T19:04:11.335Z,99377.66
2022-08-23T19:06:13.225Z,99386.28
2022-08-23T19:08:15.672Z,99379.25
2022-08-23T19:10:20.487Z,99376.88
2022-08-23T19:12:22.918Z,99368.28
2022-08-23T19:14:24.965Z,99375.34
2022-08-23T19:16:27.584Z,99374.50
2022-08-23T19:18:30.415Z,99378.81
2022-08-23T19:20:33.150Z,99384.81
2022-08-23T19:22:35.814Z,99383.25
2022-08-23T19:24:38.454Z,99392.78
2022-08-23T19:26:44.744Z,99386.72
2022-08-23T19:28:47.880Z,99392.69
2022-08-23T19:30:52.404Z,99403.38
2022-08-23T19:32:55.102Z,99404.16
2022-08-23T19:34:59.018Z,99398.59
2022-08-23T19:37:01.838Z,99408.09
2022-08-23T19:39:06.367Z,99411.47
2022-08-23T19:41:09.701Z,99413.41
2022-08-23T19:43:12.399Z,99422.59
2022-08-23T19:45:15.832Z,99419.50
2022-08-23T19:47:21.135Z,99423.91
2022-08-23T19:49:27.326Z,99421.47
2022-08-23T19:51:30.108Z,99424.25
2022-08-23T19:53:32.526Z,99417.72
2022-08-23T19:55:38.422Z,99414.13
2022-08-23T19:57:40.502Z,99419.16
2022-08-23T19:59:43.381Z,99420.47
2022-08-23T20:01:46.554Z,99418.84
2022-08-23T20:03:49.308Z,99413.34
2022-08-23T20:05:53.113Z,99415.69
2022-08-23T20:07:59.191Z,99413.94
2022-08-23T20:10:01.286Z,99403.50
2022-08-23T20:12:03.823Z,99407.06
2022-08-23T20:14:07.170Z,99410.84
2022-08-23T20:16:09.255Z,99401.41
2022-08-23T20:18:11.601Z,99393.28
2022-08-23T20:20:14.188Z,99394.84
2022-08-23T20:22:36.312Z,99393.50
2022-08-23T20:24:51.730Z,99393.91
2022-08-23T20:26:55.092Z,99408.63
2022-08-23T20:29:00.276Z,99399.22
2022-08-23T20:31:23.663Z,99403.41
2022-08-23T20:33:26.321Z,99397.00
2022-08-23T20:35:28.986Z,99401.03
2022-08-23T20:37:34.192Z,99398.66
2022-08-23T20:39:36.582Z,99409.13
2022-08-23T20:41:40.395Z,99420.25
2022-08-23T20:43:42.717Z,99410.38
2022-08-23T20:45:45.184Z,99415.28
2022-08-23T20:47:52.418Z,99425.72
2022-08-23T20:49:54.486Z,99424.38
2022-08-23T20:51:57.118Z,99438.59
2022-08-23T20:54:00.468Z,99440.13
2022-08-23T20:56:03.038Z,99445.47
2022-08-23T20:58:08.672Z,99452.28
2022-08-23T21:00:14.428Z,99465.66
2022-08-23T21:02:16.785Z,99460.47
2022-08-23T21:04:19.789Z,99460.38
2022-08-23T21:06:36.381Z,99465.50
2022-08-23T21:08:43.447Z,99461.94
2022-08-23T21:10:46.207Z,99461.41
2022-08-23T21:12:48.801Z,99454.00
2022-08-23T21:14:51.059Z,99449.56
2022-08-23T21:16:53.435Z,99448.56
2022-08-23T21:18:56.996Z,99451.19
2022-08-23T21:20:59.839Z,99447.72
2022-08-23T21:23:02.250Z,99447.91
2022-08-23T21:25:05.716Z,99442.09
2022-08-23T21:27:09.463Z,99436.06
2022-08-23T21:29:12.192Z,99436.31
2022-08-23T21:31:17.530Z,99425.91
2022-08-23T21:33:22.199Z,99437.59
2022-08-23T21:35:24.370Z,99428.19
2022-08-23T21:37:27.469Z,99419.81
2022-08-23T21:39:29.844Z,99421.84
2022-08-23T21:41:32.199Z,99430.34
2022-08-23T21:43:37.431Z,99429.88
2022-08-23T21:45:41.540Z,99422.22
2022-08-23T21:47:44.237Z,99421.91
2022-08-23T21:49:46.987Z,99417.13
2022-08-23T21:51:50.063Z,99414.94
2022-08-23T21:53:54.406Z,99407.56
2022-08-23T21:55:58.396Z,99409.31
2022-08-23T21:58:00.652Z,99416.50
2022-08-23T22:00:04.231Z,99411.19
2022-08-23T22:02:14.796Z,99402.78
2022-08-23T22:04:17.587Z,99402.94
2022-08-23T22:06:19.942Z,99411.19
2022-08-23T22:08:22.124Z,99410.47
2022-08-23T22:10:25.788Z,99409.75
2022-08-23T22:12:28.516Z,99399.78
2022-08-23T22:14:32.371Z,99402.38
2022-08-23T22:16:35.487Z,99398.22
2022-08-23T22:18:37.710Z,99409.34
2022-08-23T22:20:40.438Z,99401.25
2022-08-23T22:22:43.786Z,99402.41
2022-08-23T22:24:46.702Z,99393.63
2022-08-23T22:26:49.133Z,99408.53
2022-08-23T22:28:54.891Z,99405.50
2022-08-23T22:31:01.264Z,99413.00
2022-08-23T22:33:04.024Z,99414.31
2022-08-23T22:35:09.005Z,99418.38
2022-08-23T22:37:11.349Z,99416.53
2022-08-23T22:39:13.634Z,99419.84
2022-08-23T22:41:18.462Z,99422.44
2022-08-23T22:43:21.116Z,99415.38
2022-08-23T22:45:23.351Z,99422.88
2022-08-23T22:47:27.350Z,99410.03
2022-08-23T22:49:31.046Z,99423.59
2022-08-23T22:51:35.093Z,99419.13
2022-08-23T22:53:45.067Z,99417.84
2022-08-23T22:55:51.344Z,99408.59
2022-08-23T22:57:53.597Z,99407.88
2022-08-23T22:59:58.500Z,99409.03
2022-08-23T23:02:03.230Z,99403.84
2022-08-23T23:04:09.100Z,99404.44
2022-08-23T23:06:15.408Z,99404.31
2022-08-23T23:08:30.261Z,99397.22
2022-08-23T23:10:32.567Z,99396.50
2022-08-23T23:12:34.665Z,99394.78
2022-08-23T23:14:37.143Z,99389.00
2022-08-23T23:16:39.994Z,99380.75
2022-08-23T23:19:04.687Z,99384.81
2022-08-23T23:21:09.411Z,99383.81
2022-08-23T23:23:16.254Z,99393.91
2022-08-23T23:25:18.530Z,99390.16
2022-08-23T23:27:20.906Z,99388.41
2022-08-23T23:29:23.962Z,99396.94
2022-08-23T23:31:26.632Z,99400.72
2022-08-23T23:33:33.788Z,99402.88
2022-08-23T23:35:37.837Z,99404.63
2022-08-23T23:37:40.306Z,99401.88
2022-08-23T23:39:42.435Z,99406.19
2022-08-23T23:41:45.037Z,99413.16
2022-08-23T23:43:47.876Z,99415.31
2022-08-23T23:45:50.159Z,99426.16
2022-08-23T23:47:52.541Z,99421.81
2022-08-23T23:49:54.831Z,99413.59
2022-08-23T23:51:57.401Z,99419.06
2022-08-23T23:54:01.107Z,99409.97
2022-08-23T23:56:10.677Z,99417.50
2022-08-23T23:58:12.795Z,99418.22
